createdAt,value
2022-08-26T00:01:31.957Z,6.60
2022-08-26T00:03:59.013Z,6.90
2022-08-26T00:06:26.249Z,7.57
2022-08-26T00:08:53.957Z,9.63
2022-08-26T00:11:26.369Z,8.50
2022-08-26T00:13:57.617Z,7.80
2022-08-26T00:16:26.771Z,7.07
2022-08-26T00:18:54.133Z,7.73
2022-08-26T00:21:20.634Z,8.30
2022-08-26T00:23:47.809Z,9.03
2022-08-26T00:26:14.632Z,7.40
2022-08-26T00:28:41.477Z,9.33
2022-08-26T00:31:11.071Z,9.80
2022-08-26T00:33:38.820Z,9.33
2022-08-26T00:36:06.517Z,9.03
2022-08-26T00:38:33.323Z,7.30
2022-08-26T00:41:00.377Z,7.30
2022-08-26T00:43:26.980Z,11.27
2022-08-26T00:46:04.770Z,8.20
2022-08-26T00:48:33.817Z,7.13
2022-08-26T00:51:11.780Z,8.47
2022-08-26T00:53:43.356Z,7.87
2022-08-26T00:56:17.715Z,7.87
2022-08-26T00:58:45.502Z,8.90
2022-08-26T01:01:12.163Z,10.03
2022-08-26T01:03:40.503Z,10.23
2022-08-26T01:06:11.479Z,8.03
2022-08-26T01:08:40.379Z,9.83
2022-08-26T01:11:08.074Z,8.27
2022-08-26T01:13:36.894Z,8.50
2022-08-26T01:16:06.175Z,9.13
2022-08-26T01:18:33.528Z,9.03
2022-08-26T01:21:06.257Z,8.00
2022-08-26T01:23:40.960Z,9.20
2022-08-26T01:26:20.054Z,8.23
2022-08-26T01:28:51.594Z,9.83
2022-08-26T01:31:22.250Z,8.87
2022-08-26T01:34:21.109Z,8.20
2022-08-26T01:36:51.661Z,8.70
2022-08-26T01:39:18.603Z,8.00
2022-08-26T01:41:46.344Z,8.90
2022-08-26T01:44:21.991Z,8.37
2022-08-26T01:46:52.215Z,9.40
2022-08-26T01:49:22.392Z,9.40
2022-08-26T01:51:51.407Z,8.97
2022-08-26T01:54:20.481Z,9.03
2022-08-26T01:56:49.731Z,8.90
2022-08-26T01:59:18.480Z,8.57
2022-08-26T02:01:47.672Z,7.60
2022-08-26T02:04:46.562Z,8.47
2022-08-26T02:07:14.200Z,9.47
2022-08-26T02:09:41.760Z,8.50
2022-08-26T02:12:10.617Z,8.90
2022-08-26T02:14:43.827Z,9.47
2022-08-26T02:17:11.295Z,8.60
2022-08-26T02:19:41.679Z,9.70
2022-08-26T02:22:14.925Z,10.23
2022-08-26T02:24:59.292Z,9.50
2022-08-26T02:27:32.820Z,9.00
2022-08-26T02:30:14.120Z,9.17
2022-08-26T02:32:44.045Z,9.10
2022-08-26T02:35:12.861Z,11.43
2022-08-26T02:37:39.503Z,9.70
2022-08-26T02:40:10.687Z,12.03
2022-08-26T02:42:37.666Z,10.20
2022-08-26T02:45:05.433Z,10.10
2022-08-26T02:47:34.371Z,10.53
2022-08-26T02:50:01.781Z,12.30
2022-08-26T02:52:28.311Z,11.47
2022-08-26T02:54:54.927Z,10.77
2022-08-26T02:57:22.206Z,15.07
2022-08-26T02:59:49.338Z,14.60
2022-08-26T03:02:16.768Z,23.93
2022-08-26T03:04:57.377Z,19.00
2022-08-26T03:07:27.308Z,22.50
2022-08-26T03:09:53.855Z,18.20
2022-08-26T03:12:20.400Z,24.90
2022-08-26T03:14:47.934Z,40.00
2022-08-26T03:17:14.479Z,35.40
2022-08-26T03:19:40.928Z,38.67
2022-08-26T03:22:07.797Z,35.37
2022-08-26T03:24:34.407Z,36.93
2022-08-26T03:27:01.960Z,36.07
2022-08-26T03:29:51.763Z,33.87
2022-08-26T03:32:20.661Z,36.73
2022-08-26T03:34:47.093Z,37.40
2022-08-26T03:37:13.524Z,35.23
2022-08-26T03:39:40.057Z,29.50
2022-08-26T03:42:07.314Z,31.97
2022-08-26T03:44:34.061Z,33.83
2022-08-26T03:47:00.591Z,41.70
2022-08-26T03:49:28.831Z,40.03
2022-08-26T03:51:55.493Z,41.73
2022-08-26T03:54:21.926Z,37.83
2022-08-26T03:56:48.355Z,42.03
2022-08-26T03:59:14.834Z,40.87
2022-08-26T04:01:42.075Z,40.40
2022-08-26T04:04:08.616Z,43.27
2022-08-26T04:06:38.425Z,43.10
2022-08-26T04:09:08.511Z,42.10
2022-08-26T04:11:38.245Z,39.10
2022-08-26T04:14:09.512Z,40.40
2022-08-26T04:16:36.523Z,41.40
2022-08-26T04:19:03.306Z,38.83
2022-08-26T04:21:29.801Z,43.83
2022-08-26T04:23:56.273Z,46.00
2022-08-26T04:26:25.354Z,47.10
2022-08-26T04:28:55.285Z,43.40
2022-08-26T04:31:22.249Z,46.47
2022-08-26T04:33:50.206Z,43.53
2022-08-26T04:36:17.653Z,42.40
2022-08-26T04:38:47.293Z,43.93
2022-08-26T04:41:15.678Z,45.97
2022-08-26T04:43:45.465Z,42.70
2022-08-26T04:46:13.920Z,46.20
2022-08-26T04:48:41.108Z,44.77
2022-08-26T04:51:09.694Z,43.97
2022-08-26T04:53:37.601Z,43.33
2022-08-26T04:56:04.880Z,40.60
2022-08-26T04:58:31.848Z,49.57
2022-08-26T05:00:58.533Z,45.40
2022-08-26T05:03:27.353Z,46.77
2022-08-26T05:05:57.968Z,44.17
2022-08-26T05:08:24.480Z,42.53
2022-08-26T05:10:57.113Z,41.30
2022-08-26T05:13:28.914Z,42.27
2022-08-26T05:15:55.751Z,42.70
2022-08-26T05:18:29.945Z,42.40
2022-08-26T05:20:57.390Z,41.73
2022-08-26T05:23:24.648Z,42.30
2022-08-26T05:25:58.364Z,40.97
2022-08-26T05:28:26.938Z,43.43
2022-08-26T05:30:55.486Z,45.30
2022-08-26T05:33:22.406Z,47.57
2022-08-26T05:35:49.171Z,47.90
2022-08-26T05:38:18.677Z,47.90
2022-08-26T05:40:49.053Z,48.00
2022-08-26T05:43:20.164Z,47.67
2022-08-26T05:45:50.273Z,53.73
2022-08-26T05:48:22.777Z,55.67
2022-08-26T05:50:54.197Z,53.37
2022-08-26T05:53:22.192Z,57.90
2022-08-26T05:55:53.131Z,62.87
2022-08-26T05:58:21.873Z,54.27
2022-08-26T06:01:19.535Z,62.73
2022-08-26T06:03:51.696Z,78.50
2022-08-26T06:06:27.603Z,61.17
2022-08-26T06:08:57.883Z,60.33
2022-08-26T06:11:25.456Z,61.37
2022-08-26T06:13:53.574Z,60.37
2022-08-26T06:16:23.310Z,64.80
2022-08-26T06:18:52.628Z,61.83
2022-08-26T06:21:25.408Z,63.47
2022-08-26T06:24:13.176Z,56.97
2022-08-26T06:26:42.666Z,63.37
2022-08-26T06:29:09.762Z,62.53
2022-08-26T06:31:37.156Z,61.80
2022-08-26T06:34:10.592Z,69.03
2022-08-26T06:36:39.341Z,72.90
2022-08-26T06:39:10.062Z,69.70
2022-08-26T06:41:43.172Z,62.27
2022-08-26T06:44:09.911Z,72.00
2022-08-26T06:46:36.526Z,54.67
2022-08-26T06:49:03.534Z,61.00
2022-08-26T06:51:32.674Z,60.03
2022-08-26T06:54:02.406Z,57.40
2022-08-26T06:56:35.270Z,56.97
2022-08-26T06:59:02.615Z,56.73
2022-08-26T07:01:31.907Z,55.13
2022-08-26T07:04:00.228Z,59.77
2022-08-26T07:06:28.200Z,58.37
2022-08-26T07:09:03.366Z,51.40
2022-08-26T07:11:31.233Z,59.43
2022-08-26T07:13:58.960Z,52.30
2022-08-26T07:16:28.807Z,51.90
2022-08-26T07:18:56.869Z,51.83
2022-08-26T07:21:24.547Z,53.83
2022-08-26T07:23:54.626Z,53.93
2022-08-26T07:26:27.033Z,57.70
2022-08-26T07:28:56.155Z,53.43
2022-08-26T07:31:25.268Z,52.30
2022-08-26T07:33:52.767Z,55.90
2022-08-26T07:36:20.763Z,53.60
2022-08-26T07:38:48.186Z,56.10
2022-08-26T07:41:17.398Z,53.77
2022-08-26T07:43:44.390Z,56.40
2022-08-26T07:46:18.316Z,61.47
2022-08-26T07:48:48.779Z,49.87
2022-08-26T07:51:20.743Z,51.57
2022-08-26T07:53:48.124Z,56.17
2022-08-26T07:56:19.576Z,61.27
2022-08-26T07:58:50.523Z,53.70
2022-08-26T08:01:18.359Z,56.83
2022-08-26T08:03:45.253Z,55.10
2022-08-26T08:06:11.896Z,61.60
2022-08-26T08:08:40.728Z,53.97
2022-08-26T08:11:07.463Z,54.67
2022-08-26T08:13:38.672Z,56.27
2022-08-26T08:16:06.094Z,54.60
2022-08-26T08:18:32.555Z,57.13
2022-08-26T08:21:20.996Z,52.03
2022-08-26T08:23:48.214Z,60.63
2022-08-26T08:26:15.359Z,60.40
2022-08-26T08:28:43.475Z,53.43
2022-08-26T08:31:54.519Z,52.83
2022-08-26T08:34:12.277Z,56.47
2022-08-26T08:36:38.739Z,52.27
2022-08-26T08:39:06.454Z,48.50
2022-08-26T08:41:38.868Z,49.87
2022-08-26T08:44:13.077Z,54.63
2022-08-26T08:46:42.393Z,51.70
2022-08-26T08:49:10.307Z,52.73
2022-08-26T08:51:54.232Z,51.87
2022-08-26T08:54:22.937Z,56.90
2022-08-26T08:56:55.312Z,52.67
2022-08-26T08:59:27.533Z,54.53
2022-08-26T09:02:20.887Z,51.23
2022-08-26T09:05:07.857Z,50.50
2022-08-26T09:07:38.821Z,52.00
2022-08-26T09:10:26.283Z,50.43
2022-08-26T09:12:52.822Z,45.77
2022-08-26T09:15:50.523Z,40.40
2022-08-26T09:18:29.145Z,41.67
2022-08-26T09:20:57.147Z,42.83
2022-08-26T09:23:23.652Z,39.10
2022-08-26T09:25:59.897Z,41.70
2022-08-26T09:28:30.306Z,41.10
2022-08-26T09:31:11.448Z,40.13
2022-08-26T09:33:40.071Z,38.97
2022-08-26T09:36:58.776Z,42.37
2022-08-26T09:39:27.987Z,43.83
2022-08-26T09:42:14.331Z,38.60
2022-08-26T09:44:58.144Z,42.90
2022-08-26T09:47:31.842Z,41.60
2022-08-26T09:50:14.370Z,38.20
2022-08-26T09:52:42.589Z,45.67
2022-08-26T09:55:09.315Z,36.53
2022-08-26T09:57:45.653Z,35.10
2022-08-26T10:00:27.151Z,34.40
2022-08-26T10:02:57.844Z,32.83
2022-08-26T10:06:01.455Z,33.30
2022-08-26T10:08:38.683Z,31.93
2022-08-26T10:11:38.339Z,37.77
2022-08-26T10:14:53.421Z,39.87
2022-08-26T10:17:30.876Z,38.53
2022-08-26T10:20:05.496Z,39.70
2022-08-26T10:23:08.451Z,41.07
2022-08-26T10:25:47.224Z,39.13
2022-08-26T10:28:31.774Z,33.93
2022-08-26T10:31:04.700Z,35.90
2022-08-26T10:33:31.313Z,34.93
2022-08-26T10:36:01.801Z,36.67
2022-08-26T10:38:40.216Z,34.33
2022-08-26T10:41:16.970Z,33.93
2022-08-26T10:43:58.073Z,31.13
2022-08-26T10:46:32.293Z,30.03
2022-08-26T10:49:06.551Z,26.43
2022-08-26T10:51:38.533Z,26.27
2022-08-26T10:54:09.217Z,25.77
2022-08-26T10:56:49.854Z,28.30
2022-08-26T10:59:39.912Z,28.07
2022-08-26T11:02:28.737Z,38.43
2022-08-26T11:04:58.824Z,37.60
2022-08-26T11:07:43.592Z,42.53
2022-08-26T11:10:17.159Z,37.33
2022-08-26T11:12:45.301Z,39.87
2022-08-26T11:15:24.575Z,43.43
2022-08-26T11:17:51.340Z,43.37
2022-08-26T11:20:29.866Z,45.13
2022-08-26T11:23:16.509Z,47.50
2022-08-26T11:25:58.913Z,49.10
2022-08-26T11:28:44.661Z,48.10
2022-08-26T11:31:33.771Z,45.87
2022-08-26T11:34:07.107Z,44.60
2022-08-26T11:36:47.747Z,44.93
2022-08-26T11:39:19.554Z,36.63
2022-08-26T11:41:49.364Z,35.00
2022-08-26T11:44:24.167Z,32.47
2022-08-26T11:47:11.543Z,29.63
2022-08-26T11:49:39.120Z,26.03
2022-08-26T11:52:20.735Z,23.10
2022-08-26T11:55:01.313Z,23.30
2022-08-26T11:57:28.739Z,20.97
2022-08-26T11:59:56.503Z,25.83
2022-08-26T12:02:23.341Z,21.10
2022-08-26T12:04:51.837Z,20.37
2022-08-26T12:07:24.412Z,20.13
2022-08-26T12:09:57.543Z,26.17
2022-08-26T12:12:36.161Z,28.03
2022-08-26T12:15:22.660Z,35.13
2022-08-26T12:17:54.373Z,30.90
2022-08-26T12:20:54.374Z,34.40
2022-08-26T12:23:31.039Z,33.77
2022-08-26T12:26:10.471Z,31.53
2022-08-26T12:28:45.801Z,32.00
2022-08-26T12:31:20.929Z,29.40
2022-08-26T12:33:49.485Z,29.20
2022-08-26T12:36:31.489Z,28.43
2022-08-26T12:39:07.199Z,32.10
2022-08-26T12:41:42.138Z,36.67
2022-08-26T12:44:09.039Z,32.93
2022-08-26T12:46:35.506Z,31.13
2022-08-26T12:49:02.977Z,35.17
2022-08-26T12:51:32.372Z,34.63
2022-08-26T12:53:59.634Z,34.53
2022-08-26T12:56:38.750Z,33.20
2022-08-26T12:59:24.981Z,31.07
2022-08-26T13:01:52.662Z,23.00
2022-08-26T13:04:39.840Z,23.13
2022-08-26T13:07:18.433Z,18.07
2022-08-26T13:09:44.838Z,21.43
2022-08-26T13:12:14.198Z,20.03
2022-08-26T13:14:40.803Z,16.77
2022-08-26T13:17:07.372Z,16.20
2022-08-26T13:19:33.776Z,15.20
2022-08-26T13:22:00.683Z,16.27
2022-08-26T13:24:36.909Z,14.97
2022-08-26T13:27:07.429Z,18.77
2022-08-26T13:29:34.233Z,10.10
2022-08-26T13:32:01.546Z,11.37
2022-08-26T13:34:29.722Z,10.23
2022-08-26T13:36:56.528Z,14.27
2022-08-26T13:39:23.900Z,11.10
2022-08-26T13:41:51.429Z,11.33
2022-08-26T13:44:18.937Z,10.70
2022-08-26T13:49:16.992Z,13.13
2022-08-26T13:51:43.444Z,14.23
2022-08-26T13:54:09.932Z,18.70
2022-08-26T13:56:36.664Z,10.67
2022-08-26T13:59:03.988Z,15.40
2022-08-26T14:01:31.714Z,11.17
2022-08-26T14:03:58.739Z,13.27
2022-08-26T14:06:25.552Z,14.00
2022-08-26T14:08:52.061Z,12.83
2022-08-26T14:11:18.897Z,14.27
2022-08-26T14:13:45.438Z,11.80
2022-08-26T14:16:26.775Z,14.57
2022-08-26T14:18:53.953Z,13.47
2022-08-26T14:21:21.260Z,12.20
2022-08-26T14:23:47.885Z,11.07
2022-08-26T14:26:21.433Z,10.53
2022-08-26T14:28:55.208Z,11.03
2022-08-26T14:31:24.424Z,12.27
2022-08-26T14:33:50.956Z,8.97
2022-08-26T14:36:29.440Z,9.20
2022-08-26T14:38:58.294Z,15.30
2022-08-26T14:41:25.392Z,10.60
2022-08-26T14:44:00.023Z,11.57
2022-08-26T14:46:30.279Z,8.67
2022-08-26T14:49:02.128Z,8.53
2022-08-26T14:51:30.112Z,8.40
2022-08-26T14:54:14.630Z,12.60
2022-08-26T14:56:53.975Z,12.27
2022-08-26T14:59:31.966Z,10.40
2022-08-26T15:01:59.165Z,9.40
2022-08-26T15:04:26.070Z,14.23
2022-08-26T15:06:57.300Z,11.83
2022-08-26T15:09:23.825Z,14.37
2022-08-26T15:11:50.767Z,8.87
2022-08-26T15:14:19.499Z,9.33
2022-08-26T15:16:55.790Z,11.07
2022-08-26T15:19:24.178Z,16.60
2022-08-26T15:21:51.434Z,9.67
2022-08-26T15:24:21.201Z,11.67
2022-08-26T15:26:48.666Z,9.10
2022-08-26T15:29:15.224Z,11.70
2022-08-26T15:31:42.092Z,6.57
2022-08-26T15:34:14.624Z,13.30
2022-08-26T15:36:44.790Z,12.53
2022-08-26T15:39:11.882Z,12.67
2022-08-26T15:41:38.380Z,9.20
2022-08-26T15:44:06.762Z,10.53
2022-08-26T15:46:34.355Z,12.90
2022-08-26T15:49:02.499Z,8.97
2022-08-26T15:51:31.910Z,10.93
2022-08-26T15:53:59.240Z,7.70
2022-08-26T15:56:27.767Z,10.60
2022-08-26T15:58:56.063Z,8.97
2022-08-26T16:01:27.456Z,10.77
2022-08-26T16:03:55.036Z,10.10
2022-08-26T16:06:24.818Z,10.63
2022-08-26T16:08:51.692Z,9.27
2022-08-26T16:11:21.331Z,12.23
2022-08-26T16:13:47.901Z,10.67
2022-08-26T16:16:15.084Z,9.83
2022-08-26T16:18:42.247Z,8.23
2022-08-26T16:21:13.579Z,7.50
2022-08-26T16:23:40.518Z,15.53
2022-08-26T16:26:14.249Z,10.17
2022-08-26T16:28:40.706Z,8.20
2022-08-26T16:31:07.285Z,9.70
2022-08-26T16:33:33.829Z,8.27
2022-08-26T16:36:00.303Z,9.20
2022-08-26T16:38:26.770Z,7.20
2022-08-26T16:40:53.243Z,12.53
2022-08-26T16:43:19.691Z,9.43
2022-08-26T16:45:46.190Z,8.43
2022-08-26T16:48:12.636Z,7.17
2022-08-26T16:50:40.703Z,6.70
2022-08-26T16:53:08.031Z,8.50
2022-08-26T16:55:35.841Z,7.83
2022-08-26T16:58:03.051Z,7.00
2022-08-26T17:00:32.279Z,10.80
2022-08-26T17:03:00.754Z,6.70
2022-08-26T17:05:28.461Z,9.33
2022-08-26T17:07:56.712Z,9.03
2022-08-26T17:10:24.752Z,7.93
2022-08-26T17:12:51.502Z,6.93
2022-08-26T17:15:18.463Z,11.90
2022-08-26T17:17:45.023Z,6.80
2022-08-26T17:20:15.588Z,10.30
2022-08-26T17:22:45.717Z,7.43
2022-08-26T17:25:24.413Z,7.40
2022-08-26T17:27:50.914Z,6.47
2022-08-26T17:30:17.966Z,6.47
2022-08-26T17:32:44.983Z,4.40
2022-08-26T17:35:13.261Z,6.83
2022-08-26T17:37:40.055Z,6.83
2022-08-26T17:40:11.894Z,8.23
2022-08-26T17:42:39.049Z,8.13
2022-08-26T17:45:06.510Z,5.00
2022-08-26T17:47:33.926Z,7.57
2022-08-26T17:50:01.323Z,12.80
2022-08-26T17:52:28.697Z,7.70
2022-08-26T17:54:58.151Z,7.43
2022-08-26T17:57:25.247Z,5.53
2022-08-26T17:59:52.762Z,4.90
2022-08-26T18:02:21.104Z,5.47
2022-08-26T18:04:48.142Z,7.20
2022-08-26T18:07:15.698Z,10.43
2022-08-26T18:09:42.433Z,9.13
2022-08-26T18:12:10.199Z,5.23
2022-08-26T18:14:36.905Z,5.90
2022-08-26T18:17:03.684Z,6.10
2022-08-26T18:19:31.340Z,11.90
2022-08-26T18:21:58.300Z,7.33
2022-08-26T18:24:24.799Z,8.50
2022-08-26T18:26:51.232Z,6.57
2022-08-26T18:29:19.531Z,6.03
2022-08-26T18:31:46.658Z,5.63
2022-08-26T18:34:15.358Z,8.37
2022-08-26T18:36:42.998Z,6.07
2022-08-26T18:39:10.985Z,5.40
2022-08-26T18:41:46.646Z,7.33
2022-08-26T18:44:14.872Z,7.97
2022-08-26T18:46:41.935Z,8.47
2022-08-26T18:49:09.637Z,7.53
2022-08-26T18:51:37.812Z,5.00
2022-08-26T18:54:06.214Z,9.13
2022-08-26T18:56:35.440Z,5.20
2022-08-26T18:59:03.037Z,6.07
2022-08-26T19:01:30.743Z,6.87
2022-08-26T19:03:59.390Z,3.77
2022-08-26T19:06:27.251Z,10.53
2022-08-26T19:08:53.970Z,4.93
2022-08-26T19:11:31.475Z,8.60
2022-08-26T19:13:59.897Z,4.70
2022-08-26T19:16:27.011Z,5.63
2022-08-26T19:18:54.798Z,5.97
2022-08-26T19:21:22.813Z,5.33
2022-08-26T19:23:50.143Z,4.10
2022-08-26T19:26:17.240Z,9.27
2022-08-26T19:28:43.703Z,9.20
2022-08-26T19:31:11.715Z,7.03
2022-08-26T19:33:43.070Z,6.03
2022-08-26T19:36:15.609Z,7.07
2022-08-26T19:38:42.874Z,5.43
2022-08-26T19:41:18.152Z,6.00
2022-08-26T19:43:46.240Z,5.20
2022-08-26T19:46:19.484Z,5.67
2022-08-26T19:48:47.179Z,5.90
2022-08-26T19:51:19.330Z,7.07
2022-08-26T19:53:47.734Z,7.50
2022-08-26T19:56:14.851Z,6.47
2022-08-26T19:58:41.888Z,9.07
2022-08-26T20:01:09.023Z,8.27
2022-08-26T20:03:36.037Z,4.93
2022-08-26T20:06:05.127Z,5.63
2022-08-26T20:08:32.507Z,9.70
2022-08-26T20:11:08.971Z,8.37
2022-08-26T20:13:36.358Z,7.00
2022-08-26T20:16:03.073Z,4.10
2022-08-26T20:18:48.010Z,8.40
2022-08-26T20:21:27.342Z,6.40
2022-08-26T20:23:59.304Z,7.50
2022-08-26T20:26:31.601Z,5.30
2022-08-26T20:28:58.795Z,4.53
2022-08-26T20:31:26.507Z,4.10
2022-08-26T20:33:53.567Z,6.37
2022-08-26T20:36:22.113Z,3.50
2022-08-26T20:38:49.623Z,13.57
2022-08-26T20:41:16.924Z,3.33
2022-08-26T20:43:43.898Z,7.40
2022-08-26T20:46:17.279Z,3.97
2022-08-26T20:48:46.789Z,3.90
2022-08-26T20:51:13.271Z,4.97
2022-08-26T20:53:39.868Z,9.10
2022-08-26T20:56:08.587Z,7.50
2022-08-26T20:58:35.715Z,11.07
2022-08-26T21:01:07.310Z,5.27
2022-08-26T21:03:34.793Z,5.13
2022-08-26T21:06:03.108Z,8.67
2022-08-26T21:08:29.590Z,5.53
2022-08-26T21:10:56.043Z,5.17
2022-08-26T21:13:22.711Z,6.60
2022-08-26T21:15:49.182Z,6.23
2022-08-26T21:18:15.629Z,6.57
2022-08-26T21:20:42.107Z,6.07
2022-08-26T21:23:08.522Z,5.03
2022-08-26T21:25:34.950Z,6.30
2022-08-26T21:28:01.361Z,8.10
2022-08-26T21:30:28.068Z,13.80
2022-08-26T21:32:54.486Z,7.20
2022-08-26T21:35:21.207Z,7.20
2022-08-26T21:37:47.674Z,9.17
2022-08-26T21:40:14.221Z,8.63
2022-08-26T21:42:40.693Z,7.93
2022-08-26T21:45:07.825Z,10.00
2022-08-26T21:47:34.333Z,6.70
2022-08-26T21:50:00.802Z,7.83
2022-08-26T21:52:27.401Z,5.37
2022-08-26T21:55:01.491Z,5.67
2022-08-26T21:57:28.799Z,6.57
2022-08-26T21:59:55.691Z,6.37
2022-08-26T22:02:22.588Z,7.40
2022-08-26T22:04:49.429Z,8.10
2022-08-26T22:07:17.917Z,5.60
2022-08-26T22:09:44.797Z,7.63
2022-08-26T22:12:12.332Z,4.70
2022-08-26T22:14:39.683Z,5.37
2022-08-26T22:17:06.518Z,7.10
2022-08-26T22:19:34.104Z,4.87
2022-08-26T22:22:12.989Z,3.23
2022-08-26T22:24:39.939Z,4.40
2022-08-26T22:27:06.390Z,3.70
2022-08-26T22:29:33.201Z,5.03
2022-08-26T22:31:59.987Z,4.97
2022-08-26T22:34:26.517Z,7.03
2022-08-26T22:36:52.976Z,3.93
2022-08-26T22:39:22.393Z,4.63
2022-08-26T22:41:49.577Z,5.17
2022-08-26T22:44:17.108Z,3.93
2022-08-26T22:46:45.102Z,4.83
2022-08-26T22:49:16.268Z,5.07
2022-08-26T22:51:46.085Z,7.30
2022-08-26T22:54:13.850Z,5.87
2022-08-26T22:56:40.788Z,5.20
2022-08-26T22:59:08.087Z,4.87
2022-08-26T23:01:36.810Z,5.53
2022-08-26T23:04:04.626Z,6.53
2022-08-26T23:06:31.225Z,5.30
2022-08-26T23:08:57.696Z,6.13
2022-08-26T23:11:24.196Z,4.60
2022-08-26T23:13:50.654Z,4.90
2022-08-26T23:16:17.144Z,5.80
2022-08-26T23:18:43.598Z,6.83
2022-08-26T23:21:10.658Z,6.17
2022-08-26T23:23:38.280Z,5.77
2022-08-26T23:26:06.957Z,5.00
2022-08-26T23:28:34.880Z,8.57
2022-08-26T23:31:01.774Z,7.57
2022-08-26T23:33:48.223Z,12.57
2022-08-26T23:36:17.843Z,9.77
2022-08-26T23:38:45.018Z,13.13
2022-08-26T23:41:19.091Z,10.53
2022-08-26T23:43:45.566Z,10.40
2022-08-26T23:46:12.096Z,13.20
2022-08-26T23:48:38.601Z,17.17
2022-08-26T23:51:23.997Z,13.20
2022-08-26T23:53:50.744Z,16.93
2022-08-26T23:56:18.275Z,16.70
2022-08-26T23:58:45.159Z,22.80
